CTV983 WIPP-WIII
Flight info
| Callsign | CTV983 |
|---|---|
| Flight time | 0h 52m |
| Altitude | 31000 |
| Route | UDOKO T5 BUNIK |
| Aircraft | A320/M-SDE2E3FGHIRWY/LB1 |
Departure
| Time | 2026-04-26 11:48 |
|---|---|
| Airport | Sultan Mahmud Badaruddin II Airport (WIPP) |
Arrival
| Time | 2026-04-26 12:41 |
|---|---|
| Airport | Soekarno-Hatta International Airport (WIII) |
| Time | Latitude | Longitude | Altitude | Speed | Heading |
|---|---|---|---|---|---|
| 2026-04-26 11:37 | -2.89634 | 104.70501 | 30 ft | 0 kts | 23° |
| 2026-04-26 11:39 | -2.89649 | 104.70494 | 31 ft | 4 kts | 25° |
| 2026-04-26 11:40 | -2.89673 | 104.70482 | 30 ft | 4 kts | 30° |
| 2026-04-26 11:40 | -2.89696 | 104.70467 | 30 ft | 4 kts | 41° |
| 2026-04-26 11:40 | -2.89712 | 104.70448 | 31 ft | 4 kts | 84° |
| 2026-04-26 11:40 | -2.89711 | 104.70436 | 31 ft | 1 kts | 112° |
| 2026-04-26 11:41 | -2.89710 | 104.70434 | 30 ft | 0 kts | 112° |
| 2026-04-26 11:44 | -2.89710 | 104.70435 | 30 ft | 1 kts | 112° |
| 2026-04-26 11:44 | -2.89726 | 104.70473 | 32 ft | 10 kts | 112° |
| 2026-04-26 11:44 | -2.89752 | 104.70534 | 28 ft | 9 kts | 114° |
| 2026-04-26 11:45 | -2.89796 | 104.70555 | 27 ft | 8 kts | 189° |
| 2026-04-26 11:45 | -2.89882 | 104.70541 | 23 ft | 14 kts | 147° |
| 2026-04-26 11:45 | -2.89928 | 104.70640 | 21 ft | 17 kts | 111° |
| 2026-04-26 11:45 | -2.89975 | 104.70756 | 20 ft | 19 kts | 112° |
| 2026-04-26 11:46 | -2.90029 | 104.70884 | 18 ft | 21 kts | 113° |
| 2026-04-26 11:46 | -2.90086 | 104.71019 | 18 ft | 19 kts | 113° |
| 2026-04-26 11:46 | -2.90150 | 104.71054 | 18 ft | 10 kts | 182° |
| 2026-04-26 11:46 | -2.90207 | 104.71031 | 19 ft | 9 kts | 223° |
| 2026-04-26 11:47 | -2.90242 | 104.70966 | 19 ft | 8 kts | 283° |
| 2026-04-26 11:47 | -2.90222 | 104.70922 | 19 ft | 9 kts | 295° |
| 2026-04-26 11:47 | -2.90125 | 104.70705 | 22 ft | 69 kts | 294° |
| 2026-04-26 11:47 | -2.89853 | 104.70052 | 21 ft | 131 kts | 293° |
| 2026-04-26 11:48 | -2.89433 | 104.69051 | 29 ft | 178 kts | 292° |
| 2026-04-26 11:48 | -2.88967 | 104.67906 | 666 ft | 175 kts | 294° |
| 2026-04-26 11:48 | -2.88498 | 104.66803 | 1387 ft | 170 kts | 295° |
| 2026-04-26 11:48 | -2.88037 | 104.65710 | 1905 ft | 177 kts | 293° |
| 2026-04-26 11:49 | -2.87471 | 104.64530 | 2143 ft | 199 kts | 311° |
| 2026-04-26 11:49 | -2.86235 | 104.63841 | 2367 ft | 220 kts | 355° |
| 2026-04-26 11:49 | -2.84700 | 104.64210 | 2699 ft | 243 kts | 34° |
| 2026-04-26 11:49 | -2.83603 | 104.65566 | 3132 ft | 263 kts | 65° |
| 2026-04-26 11:50 | -2.83020 | 104.67323 | 3869 ft | 269 kts | 76° |
| 2026-04-26 11:50 | -2.82617 | 104.69159 | 4644 ft | 274 kts | 78° |
| 2026-04-26 11:50 | -2.82224 | 104.71029 | 5190 ft | 275 kts | 77° |
| 2026-04-26 11:50 | -2.81788 | 104.72891 | 6050 ft | 276 kts | 76° |
| 2026-04-26 11:51 | -2.81304 | 104.74732 | 6803 ft | 278 kts | 74° |
| 2026-04-26 11:51 | -2.80771 | 104.76599 | 7558 ft | 281 kts | 73° |
| 2026-04-26 11:51 | -2.80212 | 104.78454 | 8298 ft | 283 kts | 72° |
| 2026-04-26 11:51 | -2.79623 | 104.80348 | 9045 ft | 286 kts | 72° |
| 2026-04-26 11:52 | -2.79022 | 104.82259 | 9783 ft | 289 kts | 72° |
| 2026-04-26 11:52 | -2.78617 | 104.83559 | 10219 ft | 291 kts | 74° |
| 2026-04-26 11:52 | -2.78369 | 104.86216 | 10526 ft | 318 kts | 96° |
| 2026-04-26 11:52 | -2.78893 | 104.88438 | 10721 ft | 338 kts | 110° |
| 2026-04-26 11:53 | -2.79856 | 104.90622 | 11226 ft | 346 kts | 113° |
| 2026-04-26 11:53 | -2.80809 | 104.92839 | 11842 ft | 349 kts | 111° |
| 2026-04-26 11:53 | -2.81685 | 104.94981 | 12456 ft | 351 kts | 111° |
| 2026-04-26 11:54 | -2.83502 | 104.99554 | 13690 ft | 357 kts | 111° |
| 2026-04-26 11:54 | -2.84423 | 105.01874 | 14228 ft | 360 kts | 111° |
| 2026-04-26 11:54 | -2.85424 | 105.04131 | 14749 ft | 363 kts | 118° |
| 2026-04-26 11:54 | -2.86919 | 105.06179 | 15268 ft | 368 kts | 132° |
| 2026-04-26 11:55 | -2.88885 | 105.07833 | 15780 ft | 372 kts | 146° |
| 2026-04-26 11:55 | -2.91212 | 105.08995 | 16290 ft | 377 kts | 159° |
| 2026-04-26 11:55 | -2.93705 | 105.09845 | 16799 ft | 380 kts | 157° |
| 2026-04-26 11:55 | -2.96081 | 105.11010 | 17296 ft | 381 kts | 148° |
| 2026-04-26 11:56 | -2.98378 | 105.12347 | 17801 ft | 384 kts | 148° |
| 2026-04-26 11:56 | -3.00696 | 105.13691 | 18269 ft | 387 kts | 148° |
| 2026-04-26 11:56 | -3.03027 | 105.15036 | 18700 ft | 389 kts | 148° |
| 2026-04-26 11:56 | -3.05383 | 105.16389 | 19124 ft | 392 kts | 148° |
| 2026-04-26 11:57 | -3.07758 | 105.17751 | 19549 ft | 395 kts | 148° |
| 2026-04-26 11:57 | -3.10117 | 105.19105 | 19976 ft | 397 kts | 148° |
| 2026-04-26 11:57 | -3.12453 | 105.20450 | 20386 ft | 400 kts | 148° |
| 2026-04-26 11:57 | -3.14872 | 105.21842 | 20807 ft | 403 kts | 148° |
| 2026-04-26 11:58 | -3.17313 | 105.23247 | 21229 ft | 406 kts | 148° |
| 2026-04-26 11:58 | -3.19764 | 105.24659 | 21648 ft | 408 kts | 148° |
| 2026-04-26 11:58 | -3.22239 | 105.26084 | 22058 ft | 411 kts | 148° |
| 2026-04-26 11:58 | -3.24716 | 105.27517 | 22449 ft | 413 kts | 147° |
| 2026-04-26 11:59 | -3.27042 | 105.29218 | 22833 ft | 414 kts | 139° |
| 2026-04-26 11:59 | -3.29252 | 105.31076 | 23213 ft | 417 kts | 139° |
| 2026-04-26 11:59 | -3.31374 | 105.32855 | 23539 ft | 419 kts | 139° |
| 2026-04-26 11:59 | -3.33616 | 105.34731 | 23844 ft | 422 kts | 139° |
| 2026-04-26 12:00 | -3.35875 | 105.36616 | 24156 ft | 424 kts | 139° |
| 2026-04-26 12:00 | -3.38146 | 105.38510 | 24463 ft | 425 kts | 139° |
| 2026-04-26 12:00 | -3.40421 | 105.40409 | 24768 ft | 427 kts | 139° |
| 2026-04-26 12:00 | -3.42708 | 105.42319 | 25065 ft | 429 kts | 139° |
| 2026-04-26 12:01 | -3.45005 | 105.44236 | 25356 ft | 431 kts | 139° |
| 2026-04-26 12:01 | -3.47310 | 105.46162 | 25645 ft | 433 kts | 139° |
| 2026-04-26 12:01 | -3.49623 | 105.48098 | 25932 ft | 434 kts | 139° |
| 2026-04-26 12:01 | -3.51914 | 105.50011 | 26217 ft | 436 kts | 139° |
| 2026-04-26 12:02 | -3.54252 | 105.51959 | 26487 ft | 438 kts | 139° |
| 2026-04-26 12:02 | -3.55832 | 105.53278 | 26660 ft | 439 kts | 139° |
| 2026-04-26 12:02 | -3.58860 | 105.55811 | 27007 ft | 441 kts | 139° |
| 2026-04-26 12:02 | -3.61217 | 105.57781 | 27271 ft | 443 kts | 139° |
| 2026-04-26 12:03 | -3.63586 | 105.59759 | 27537 ft | 444 kts | 139° |
| 2026-04-26 12:03 | -3.65967 | 105.61743 | 27795 ft | 446 kts | 139° |
| 2026-04-26 12:03 | -3.68293 | 105.63681 | 28038 ft | 448 kts | 139° |
| 2026-04-26 12:03 | -3.70689 | 105.65679 | 28276 ft | 450 kts | 139° |
| 2026-04-26 12:04 | -3.73095 | 105.67691 | 28517 ft | 451 kts | 139° |
| 2026-04-26 12:04 | -3.75507 | 105.69711 | 28753 ft | 453 kts | 139° |
| 2026-04-26 12:04 | -3.77929 | 105.71741 | 28982 ft | 454 kts | 139° |
| 2026-04-26 12:04 | -3.80360 | 105.73773 | 29209 ft | 456 kts | 139° |
| 2026-04-26 12:05 | -3.82798 | 105.75810 | 29423 ft | 458 kts | 139° |
| 2026-04-26 12:05 | -3.85249 | 105.77857 | 29634 ft | 459 kts | 139° |
| 2026-04-26 12:05 | -3.87591 | 105.79812 | 29832 ft | 461 kts | 139° |
| 2026-04-26 12:05 | -3.90061 | 105.81872 | 30011 ft | 462 kts | 139° |
| 2026-04-26 12:06 | -3.92535 | 105.83933 | 30210 ft | 463 kts | 139° |
| 2026-04-26 12:06 | -3.95009 | 105.86000 | 30385 ft | 464 kts | 139° |
| 2026-04-26 12:06 | -3.97464 | 105.88057 | 30548 ft | 465 kts | 139° |
| 2026-04-26 12:06 | -3.99916 | 105.90110 | 30708 ft | 466 kts | 139° |
| 2026-04-26 12:07 | -4.02403 | 105.92190 | 30827 ft | 465 kts | 139° |
| 2026-04-26 12:07 | -4.04850 | 105.94233 | 30853 ft | 452 kts | 139° |
| 2026-04-26 12:07 | -4.07248 | 105.96233 | 30863 ft | 447 kts | 139° |
| 2026-04-26 12:08 | -4.12001 | 106.00205 | 30858 ft | 444 kts | 139° |
| 2026-04-26 12:08 | -4.16735 | 106.04177 | 30856 ft | 444 kts | 139° |
| 2026-04-26 12:09 | -4.21470 | 106.08142 | 30863 ft | 444 kts | 139° |
| 2026-04-26 12:09 | -4.26213 | 106.12102 | 30856 ft | 444 kts | 139° |
| 2026-04-26 12:10 | -4.30952 | 106.16062 | 30862 ft | 444 kts | 139° |
| 2026-04-26 12:10 | -4.35531 | 106.19896 | 30863 ft | 444 kts | 139° |
| 2026-04-26 12:11 | -4.40258 | 106.23864 | 30863 ft | 444 kts | 139° |
| 2026-04-26 12:11 | -4.44997 | 106.27831 | 30863 ft | 444 kts | 139° |
| 2026-04-26 12:12 | -4.49733 | 106.31794 | 30866 ft | 444 kts | 139° |
| 2026-04-26 12:12 | -4.54476 | 106.35762 | 30863 ft | 444 kts | 139° |
| 2026-04-26 12:13 | -4.59211 | 106.39731 | 30865 ft | 444 kts | 139° |
| 2026-04-26 12:13 | -4.63941 | 106.43695 | 30862 ft | 443 kts | 139° |
| 2026-04-26 12:14 | -4.68640 | 106.47636 | 30865 ft | 443 kts | 139° |
| 2026-04-26 12:14 | -4.73363 | 106.51595 | 30863 ft | 443 kts | 139° |
| 2026-04-26 12:15 | -4.78093 | 106.55555 | 30861 ft | 443 kts | 139° |
| 2026-04-26 12:15 | -4.82819 | 106.59518 | 30863 ft | 443 kts | 139° |
| 2026-04-26 12:16 | -4.87836 | 106.63087 | 30865 ft | 445 kts | 152° |
| 2026-04-26 12:16 | -4.93468 | 106.65661 | 30868 ft | 445 kts | 154° |
| 2026-04-26 12:17 | -4.99122 | 106.68239 | 30875 ft | 451 kts | 154° |
| 2026-04-26 12:17 | -5.02006 | 106.69556 | 30631 ft | 457 kts | 154° |
| 2026-04-26 12:17 | -5.04887 | 106.70873 | 29485 ft | 454 kts | 154° |
| 2026-04-26 12:17 | -5.07728 | 106.72173 | 28465 ft | 447 kts | 154° |
| 2026-04-26 12:18 | -5.09345 | 106.72913 | 28208 ft | 437 kts | 154° |
| 2026-04-26 12:18 | -5.11173 | 106.73748 | 27845 ft | 434 kts | 154° |
| 2026-04-26 12:18 | -5.13908 | 106.74999 | 27305 ft | 430 kts | 154° |
| 2026-04-26 12:18 | -5.17533 | 106.76664 | 26588 ft | 426 kts | 154° |
| 2026-04-26 12:19 | -5.20203 | 106.77884 | 26244 ft | 418 kts | 154° |
| 2026-04-26 12:19 | -5.21947 | 106.78676 | 25954 ft | 415 kts | 154° |
| 2026-04-26 12:19 | -5.25422 | 106.80247 | 25286 ft | 412 kts | 154° |
| 2026-04-26 12:19 | -5.28023 | 106.81421 | 24813 ft | 409 kts | 154° |
| 2026-04-26 12:20 | -5.29772 | 106.82210 | 24501 ft | 407 kts | 154° |
| 2026-04-26 12:20 | -5.32344 | 106.83370 | 24048 ft | 404 kts | 154° |
| 2026-04-26 12:20 | -5.34891 | 106.84520 | 23545 ft | 398 kts | 154° |
| 2026-04-26 12:20 | -5.37409 | 106.85658 | 22742 ft | 393 kts | 154° |
| 2026-04-26 12:21 | -5.39821 | 106.86750 | 22289 ft | 378 kts | 154° |
| 2026-04-26 12:21 | -5.42179 | 106.87817 | 21837 ft | 365 kts | 154° |
| 2026-04-26 12:21 | -5.44493 | 106.88745 | 21398 ft | 353 kts | 163° |
| 2026-04-26 12:21 | -5.46877 | 106.89184 | 20960 ft | 345 kts | 175° |
| 2026-04-26 12:22 | -5.49298 | 106.89108 | 20517 ft | 359 kts | 187° |
| 2026-04-26 12:22 | -5.51755 | 106.88487 | 20025 ft | 368 kts | 199° |
| 2026-04-26 12:22 | -5.54141 | 106.87548 | 19540 ft | 369 kts | 199° |
| 2026-04-26 12:22 | -5.56539 | 106.86609 | 19047 ft | 371 kts | 199° |
| 2026-04-26 12:23 | -5.58948 | 106.85676 | 18635 ft | 369 kts | 199° |
| 2026-04-26 12:23 | -5.61343 | 106.84753 | 18144 ft | 370 kts | 199° |
| 2026-04-26 12:23 | -5.63730 | 106.83835 | 17814 ft | 365 kts | 199° |
| 2026-04-26 12:23 | -5.66090 | 106.82929 | 17385 ft | 362 kts | 199° |
| 2026-04-26 12:24 | -5.68441 | 106.82028 | 16970 ft | 360 kts | 199° |
| 2026-04-26 12:24 | -5.70774 | 106.81133 | 16564 ft | 358 kts | 199° |
| 2026-04-26 12:24 | -5.71895 | 106.80702 | 16381 ft | 356 kts | 199° |
| 2026-04-26 12:25 | -5.76378 | 106.78978 | 15062 ft | 348 kts | 199° |
| 2026-04-26 12:25 | -5.78624 | 106.78112 | 14505 ft | 344 kts | 199° |
| 2026-04-26 12:25 | -5.80831 | 106.77259 | 14051 ft | 345 kts | 199° |
| 2026-04-26 12:25 | -5.83030 | 106.76407 | 13727 ft | 342 kts | 200° |
| 2026-04-26 12:26 | -5.85115 | 106.75234 | 13263 ft | 344 kts | 216° |
| 2026-04-26 12:26 | -5.86822 | 106.73574 | 12890 ft | 340 kts | 231° |
| 2026-04-26 12:26 | -5.88057 | 106.71565 | 12304 ft | 338 kts | 246° |
| 2026-04-26 12:26 | -5.88915 | 106.69422 | 11709 ft | 336 kts | 248° |
| 2026-04-26 12:27 | -5.89775 | 106.67251 | 11146 ft | 333 kts | 248° |
| 2026-04-26 12:27 | -5.90628 | 106.65107 | 10597 ft | 329 kts | 248° |
| 2026-04-26 12:27 | -5.91470 | 106.62992 | 10250 ft | 318 kts | 248° |
| 2026-04-26 12:27 | -5.92271 | 106.60986 | 10108 ft | 302 kts | 248° |
| 2026-04-26 12:28 | -5.93043 | 106.59058 | 9773 ft | 294 kts | 248° |
| 2026-04-26 12:28 | -5.93798 | 106.57176 | 9699 ft | 291 kts | 248° |
| 2026-04-26 12:28 | -5.94562 | 106.55297 | 9477 ft | 291 kts | 247° |
| 2026-04-26 12:28 | -5.95328 | 106.53422 | 9248 ft | 289 kts | 247° |
| 2026-04-26 12:29 | -5.96088 | 106.51559 | 9021 ft | 288 kts | 247° |
| 2026-04-26 12:29 | -5.96844 | 106.49703 | 8790 ft | 287 kts | 247° |
| 2026-04-26 12:29 | -5.98321 | 106.46096 | 8478 ft | 285 kts | 247° |
| 2026-04-26 12:30 | -5.99071 | 106.44256 | 8261 ft | 284 kts | 248° |
| 2026-04-26 12:30 | -5.99816 | 106.42426 | 8038 ft | 283 kts | 248° |
| 2026-04-26 12:30 | -6.00557 | 106.40601 | 7809 ft | 282 kts | 248° |
| 2026-04-26 12:31 | -6.02031 | 106.36976 | 7377 ft | 279 kts | 248° |
| 2026-04-26 12:31 | -6.02752 | 106.35204 | 7245 ft | 268 kts | 248° |
| 2026-04-26 12:31 | -6.03483 | 106.33532 | 7139 ft | 256 kts | 238° |
| 2026-04-26 12:31 | -6.04699 | 106.32287 | 7027 ft | 250 kts | 209° |
| 2026-04-26 12:32 | -6.06328 | 106.31763 | 6801 ft | 246 kts | 180° |
| 2026-04-26 12:32 | -6.08016 | 106.31967 | 6554 ft | 245 kts | 168° |
| 2026-04-26 12:32 | -6.11371 | 106.32576 | 6050 ft | 244 kts | 168° |
| 2026-04-26 12:33 | -6.13042 | 106.32874 | 5802 ft | 243 kts | 169° |
| 2026-04-26 12:33 | -6.14701 | 106.33168 | 5555 ft | 242 kts | 169° |
| 2026-04-26 12:33 | -6.16282 | 106.33444 | 5324 ft | 241 kts | 169° |
| 2026-04-26 12:33 | -6.17901 | 106.33728 | 5167 ft | 239 kts | 169° |
| 2026-04-26 12:34 | -6.19530 | 106.34072 | 5071 ft | 239 kts | 158° |
| 2026-04-26 12:34 | -6.20914 | 106.34959 | 4943 ft | 237 kts | 132° |
| 2026-04-26 12:34 | -6.21846 | 106.36303 | 4741 ft | 235 kts | 120° |
| 2026-04-26 12:34 | -6.22702 | 106.37699 | 4546 ft | 234 kts | 121° |
| 2026-04-26 12:35 | -6.23396 | 106.39165 | 4349 ft | 232 kts | 103° |
| 2026-04-26 12:35 | -6.23511 | 106.40762 | 4163 ft | 228 kts | 81° |
| 2026-04-26 12:35 | -6.23061 | 106.42260 | 3981 ft | 221 kts | 68° |
| 2026-04-26 12:35 | -6.22496 | 106.43672 | 3796 ft | 214 kts | 68° |
| 2026-04-26 12:36 | -6.21952 | 106.45036 | 3635 ft | 208 kts | 68° |
| 2026-04-26 12:36 | -6.21420 | 106.46373 | 3544 ft | 205 kts | 68° |
| 2026-04-26 12:36 | -6.20891 | 106.47703 | 3332 ft | 204 kts | 68° |
| 2026-04-26 12:36 | -6.20365 | 106.49023 | 3086 ft | 203 kts | 68° |
| 2026-04-26 12:37 | -6.19840 | 106.50342 | 2828 ft | 203 kts | 68° |
| 2026-04-26 12:37 | -6.19317 | 106.51656 | 2578 ft | 202 kts | 68° |
| 2026-04-26 12:37 | -6.18796 | 106.52965 | 2363 ft | 199 kts | 68° |
| 2026-04-26 12:37 | -6.18285 | 106.54246 | 2058 ft | 194 kts | 69° |
| 2026-04-26 12:38 | -6.17801 | 106.55461 | 1807 ft | 179 kts | 69° |
| 2026-04-26 12:38 | -6.17367 | 106.56553 | 1642 ft | 160 kts | 68° |
| 2026-04-26 12:38 | -6.16969 | 106.57552 | 1434 ft | 150 kts | 68° |
| 2026-04-26 12:38 | -6.16588 | 106.58507 | 1247 ft | 146 kts | 68° |
| 2026-04-26 12:39 | -6.16213 | 106.59450 | 1066 ft | 145 kts | 68° |
| 2026-04-26 12:39 | -6.15848 | 106.60389 | 884 ft | 144 kts | 68° |
| 2026-04-26 12:39 | -6.15490 | 106.61317 | 730 ft | 144 kts | 66° |
| 2026-04-26 12:39 | -6.15136 | 106.62195 | 553 ft | 145 kts | 67° |
| 2026-04-26 12:40 | -6.14754 | 106.63132 | 350 ft | 145 kts | 66° |
| 2026-04-26 12:40 | -6.14375 | 106.64069 | 160 ft | 145 kts | 66° |
| 2026-04-26 12:40 | -6.14004 | 106.64983 | 41 ft | 134 kts | 66° |
| 2026-04-26 12:40 | -6.13705 | 106.65721 | 38 ft | 89 kts | 68° |
| 2026-04-26 12:41 | -6.13547 | 106.66117 | 39 ft | 33 kts | 65° |
| 2026-04-26 12:41 | -6.13425 | 106.66248 | 39 ft | 17 kts | 39° |
| 2026-04-26 12:41 | -6.13317 | 106.66290 | 39 ft | 17 kts | 349° |
| 2026-04-26 12:41 | -6.13263 | 106.66270 | 38 ft | 6 kts | 338° |
| 2026-04-26 12:42 | -6.13225 | 106.66252 | 35 ft | 7 kts | 327° |
| 2026-04-26 12:42 | -6.13233 | 106.66171 | 38 ft | 17 kts | 248° |
| 2026-04-26 12:42 | -6.13280 | 106.66056 | 38 ft | 19 kts | 247° |
| 2026-04-26 12:42 | -6.13329 | 106.65938 | 38 ft | 17 kts | 248° |
| 2026-04-26 12:43 | -6.13374 | 106.65825 | 38 ft | 18 kts | 248° |
| 2026-04-26 12:43 | -6.13409 | 106.65729 | 38 ft | 11 kts | 248° |
| 2026-04-26 12:43 | -6.13436 | 106.65663 | 38 ft | 9 kts | 248° |
| 2026-04-26 12:43 | -6.13418 | 106.65614 | 37 ft | 8 kts | 328° |
| 2026-04-26 12:44 | -6.13376 | 106.65588 | 36 ft | 7 kts | 319° |
| 2026-04-26 12:44 | -6.13331 | 106.65530 | 38 ft | 14 kts | 307° |
| 2026-04-26 12:44 | -6.13274 | 106.65432 | 38 ft | 18 kts | 275° |
| 2026-04-26 12:44 | -6.13296 | 106.65331 | 38 ft | 10 kts | 246° |
| 2026-04-26 12:45 | -6.13292 | 106.65277 | 36 ft | 8 kts | 323° |
| 2026-04-26 12:45 | -6.13275 | 106.65270 | 38 ft | 0 kts | 339° |
| 2026-04-26 12:45 | -6.13270 | 106.65268 | 38 ft | 0 kts | 336° |
| 2026-04-26 12:45 | -6.13257 | 106.65262 | 38 ft | 2 kts | 337° |
| 2026-04-26 12:46 | -6.13254 | 106.65261 | 37 ft | 0 kts | 337° |